Time;durP1;ratioP1;P1;durP2;ratioP2;P2;SDS_P1;SDS_P2;PMS_P1;PMS_P2;Temp;Humidity;BMP_temperature;BMP_pressure;BME280_temperature;BME280_humidity;BME280_pressure;Samples;Min_cycle;Max_cycle;Signal;HPM_P1;HPM_P2
2022/07/29 00:01:39;;;;;;;7.10;2.30;;;;;;;12.27;94.44;100614.85;105016;1271;61012;-73
2022/07/29 00:04:27;;;;;;;10.30;2.70;;;;;;;12.26;94.56;100609.94;104977;1271;74730;-73
2022/07/29 00:07:16;;;;;;;9.40;2.90;;;;;;;12.26;94.69;100609.92;105027;1271;70054;-74
2022/07/29 00:10:05;;;;;;;9.00;2.90;;;;;;;12.24;94.46;100602.27;105000;1271;73449;-73
2022/07/29 00:12:52;;;;;;;9.80;2.70;;;;;;;12.20;94.51;100602.92;105126;1273;60099;-73
2022/07/29 00:15:42;;;;;;;11.40;2.70;;;;;;;12.18;95.02;100600.94;104939;1271;61891;-73
2022/07/29 00:18:30;;;;;;;9.70;3.20;;;;;;;12.17;94.72;100602.11;105034;1271;72466;-72
2022/07/29 00:21:18;;;;;;;10.60;2.90;;;;;;;12.13;95.20;100599.72;104904;1271;67086;-72
2022/07/29 00:24:07;;;;;;;9.30;3.00;;;;;;;12.10;95.15;100602.62;105107;1271;72763;-74
2022/07/29 00:26:55;;;;;;;10.40;3.10;;;;;;;12.07;95.32;100606.71;105238;1271;61105;-74
2022/07/29 00:29:43;;;;;;;11.90;3.10;;;;;;;12.04;95.88;100607.48;105241;1271;60537;-73
2022/07/29 00:32:33;;;;;;;11.00;2.90;;;;;;;12.03;95.93;100607.64;105248;1271;72444;-72
2022/07/29 00:38:28;;;;;;;11.40;3.00;;;;;;;12.05;96.51;100604.96;105039;1272;74420;-73
2022/07/29 00:41:18;;;;;;;9.50;3.00;;;;;;;12.02;96.33;100606.22;105266;1271;59842;-73
2022/07/29 00:44:05;;;;;;;11.80;3.40;;;;;;;12.00;96.73;100606.04;104964;1271;61999;-73
2022/07/29 00:46:53;;;;;;;10.30;3.20;;;;;;;11.99;96.77;100604.72;105190;1271;74238;-73
2022/07/29 00:49:43;;;;;;;9.20;2.80;;;;;;;11.98;97.08;100608.69;105107;1271;67234;-73
2022/07/29 00:52:33;;;;;;;9.40;3.00;;;;;;;11.96;97.07;100605.63;105103;1273;72818;-74
2022/07/29 00:55:22;;;;;;;9.50;3.10;;;;;;;11.94;97.07;100607.55;104929;1271;60090;-73
2022/07/29 00:58:12;;;;;;;11.50;3.10;;;;;;;11.92;97.05;100612.42;105066;1271;59662;-74
2022/07/29 01:01:00;;;;;;;9.60;2.70;;;;;;;11.91;97.12;100609.52;105129;1271;73269;-72
2022/07/29 01:03:49;;;;;;;9.80;2.90;;;;;;;11.89;97.23;100612.16;105004;1271;69377;-72
2022/07/29 01:06:37;;;;;;;10.50;3.10;;;;;;;11.88;97.41;100611.15;105003;1271;74551;-72
2022/07/29 01:09:27;;;;;;;9.50;2.80;;;;;;;11.87;97.46;100611.37;104987;1271;61238;-73
2022/07/29 01:12:35;;;;;;;7.30;2.60;;;;;;;11.84;97.33;100607.71;105394;1271;60639;-74
2022/07/29 01:15:23;;;;;;;10.20;2.60;;;;;;;11.83;97.70;100611.91;105027;1271;73788;-73
2022/07/29 01:18:23;;;;;;;8.60;2.60;;;;;;;11.81;97.79;100616.83;104986;1271;70193;-71
2022/07/29 01:21:44;;;;;;;10.80;2.90;;;;;;;11.79;97.75;100615.03;104851;1271;73711;-73
2022/07/29 01:25:12;;;;;;;8.50;2.70;;;;;;;11.76;97.88;100618.63;104956;1271;60287;-74
2022/07/29 01:28:00;;;;;;;8.50;2.60;;;;;;;11.76;97.86;100619.14;105117;1271;60968;-73
2022/07/29 01:30:53;;;;;;;7.80;2.30;;;;;;;11.75;98.22;100618.50;105016;1271;74701;-73
2022/07/29 01:33:57;;;;;;;6.90;2.80;;;;;;;11.75;97.89;100619.25;105140;1271;69420;-72
2022/07/29 01:37:06;;;;;;;6.90;2.30;;;;;;;11.73;97.49;100619.77;104866;1271;73529;-71
2022/07/29 01:39:59;;;;;;;9.20;2.70;;;;;;;11.72;97.77;100618.42;104806;1271;59662;-72
2022/07/29 01:42:56;;;;;;;10.80;2.70;;;;;;;11.70;97.32;100612.32;104968;1271;59788;-75
2022/07/29 01:45:55;;;;;;;9.80;2.60;;;;;;;11.70;98.01;100609.98;105167;1271;73839;-72
2022/07/29 01:49:01;;;;;;;8.30;2.40;;;;;;;11.69;97.92;100609.51;105078;1271;68597;-73
2022/07/29 01:51:59;;;;;;;6.60;2.60;;;;;;;11.68;97.96;100604.64;104958;1271;73867;-72
2022/07/29 01:55:07;;;;;;;8.30;2.30;;;;;;;11.67;97.90;100608.79;104949;1271;59652;-71
2022/07/29 01:57:58;;;;;;;9.00;3.00;;;;;;;11.64;97.43;100606.15;105178;1271;60467;-71
2022/07/29 02:00:48;;;;;;;6.60;2.30;;;;;;;11.60;96.96;100603.80;104944;1271;74144;-73
2022/07/29 02:03:38;;;;;;;8.30;2.20;;;;;;;11.58;97.44;100602.88;104999;1271;67028;-73
2022/07/29 02:06:27;;;;;;;7.90;2.40;;;;;;;11.55;96.99;100600.63;104974;1271;71186;-73
2022/07/29 02:09:18;;;;;;;10.80;2.60;;;;;;;11.50;96.67;100604.33;105011;1271;59733;-72
2022/07/29 02:12:07;;;;;;;9.30;3.80;;;;;;;11.46;96.74;100609.45;104931;1271;61575;-72
2022/07/29 02:14:59;;;;;;;8.90;2.70;;;;;;;11.43;96.67;100610.38;105169;1271;74928;-72
2022/07/29 02:17:54;;;;;;;7.10;2.70;;;;;;;11.38;96.72;100610.52;105117;1271;66869;-73
2022/07/29 02:20:49;;;;;;;8.10;2.40;;;;;;;11.35;96.79;100609.02;105160;1271;72696;-71
2022/07/29 02:23:39;;;;;;;7.10;2.20;;;;;;;11.28;96.58;100608.07;104941;1271;59654;-72
2022/07/29 02:26:41;;;;;;;9.60;2.80;;;;;;;11.24;96.55;100607.84;104984;1274;60495;-71
2022/07/29 02:29:31;;;;;;;8.00;2.40;;;;;;;11.23;96.90;100607.33;105187;1271;73959;-72
2022/07/29 02:32:24;;;;;;;8.70;2.40;;;;;;;11.24;97.21;100606.52;104998;1271;69644;-72
2022/07/29 02:35:14;;;;;;;8.50;2.40;;;;;;;11.27;97.12;100605.30;104921;1271;73383;-71
2022/07/29 02:41:16;;;;;;;9.80;2.50;;;;;;;11.27;96.80;100603.17;104995;1271;60972;-74
2022/07/29 02:44:17;;;;;;;7.20;1.90;;;;;;;11.29;97.41;100605.73;104974;1274;72459;-73
2022/07/29 02:47:19;;;;;;;8.40;2.20;;;;;;;11.29;97.23;100605.55;104982;1271;69562;-74
2022/07/29 02:50:26;;;;;;;7.70;2.00;;;;;;;11.28;97.40;100607.17;104975;1271;73707;-73
2022/07/29 02:53:25;;;;;;;8.20;2.00;;;;;;;11.27;97.52;100607.23;105090;1271;59817;-72
2022/07/29 02:56:16;;;;;;;7.30;1.90;;;;;;;11.28;98.05;100604.34;104827;1274;59782;-72
2022/07/29 02:59:11;;;;;;;8.80;2.20;;;;;;;11.32;98.55;100605.31;104863;1271;74491;-72
2022/07/29 03:02:00;;;;;;;6.30;2.20;;;;;;;11.37;98.61;100608.49;104866;1272;69737;-71
2022/07/29 03:04:51;;;;;;;8.20;2.30;;;;;;;11.41;98.45;100610.16;105018;1271;74146;-72
2022/07/29 03:07:42;;;;;;;10.70;2.30;;;;;;;11.47;98.30;100607.45;104920;1271;60297;-74
2022/07/29 03:10:32;;;;;;;7.20;1.90;;;;;;;11.49;98.12;100606.75;105151;1271;61551;-72
2022/07/29 03:13:21;;;;;;;6.50;2.10;;;;;;;11.51;97.92;100606.42;104996;1271;72768;-72
2022/07/29 03:16:11;;;;;;;8.40;2.30;;;;;;;11.53;97.88;100607.17;104969;1272;69559;-73
2022/07/29 03:19:00;;;;;;;7.80;2.70;;;;;;;11.56;97.60;100605.83;105233;1271;73808;-73
2022/07/29 03:21:48;;;;;;;7.50;2.20;;;;;;;11.63;97.56;100605.04;105240;1271;60942;-73
2022/07/29 03:24:37;;;;;;;9.60;2.30;;;;;;;11.68;97.30;100601.40;105096;1271;60558;-73
2022/07/29 03:27:25;;;;;;;7.40;2.30;;;;;;;11.72;97.16;100606.64;104947;1271;73316;-74
2022/07/29 03:30:13;;;;;;;6.80;2.30;;;;;;;11.77;97.19;100602.87;104903;1271;69617;-74
2022/07/29 03:33:08;;;;;;;7.40;2.00;;;;;;;11.83;96.66;100599.05;105152;1271;73254;-74
2022/07/29 03:36:02;;;;;;;7.20;2.00;;;;;;;11.89;96.64;100595.09;105184;1271;59762;-73
2022/07/29 03:38:50;;;;;;;7.90;2.40;;;;;;;11.93;96.42;100593.55;105111;1271;61337;-73
2022/07/29 03:41:42;;;;;;;7.90;2.20;;;;;;;11.94;96.27;100591.88;105172;1271;71690;-74
2022/07/29 03:44:31;;;;;;;6.40;2.10;;;;;;;12.02;96.06;100597.17;105153;1271;65903;-73
2022/07/29 03:47:27;;;;;;;8.10;2.70;;;;;;;12.05;96.00;100598.39;105030;1271;74468;-74
2022/07/29 03:50:36;;;;;;;8.20;2.50;;;;;;;12.04;95.35;100600.91;104985;1271;61411;-72
2022/07/29 03:53:23;;;;;;;6.80;2.20;;;;;;;12.05;95.82;100605.65;105100;1271;61057;-74
2022/07/29 03:56:16;;;;;;;7.20;2.30;;;;;;;12.08;95.90;100606.16;105120;1271;72712;-73
2022/07/29 03:59:05;;;;;;;7.80;2.30;;;;;;;12.12;96.14;100604.98;104931;1272;68471;-74
2022/07/29 04:01:55;;;;;;;7.30;2.40;;;;;;;12.21;96.33;100603.95;105119;1271;72835;-76
2022/07/29 04:04:43;;;;;;;7.80;2.50;;;;;;;12.33;95.96;100609.25;104921;1274;60889;-75
2022/07/29 04:07:31;;;;;;;7.40;2.80;;;;;;;12.46;95.87;100612.50;105039;1271;59630;-76
2022/07/29 04:10:19;;;;;;;8.90;2.60;;;;;;;12.59;95.60;100608.50;105065;1271;72478;-75
2022/07/29 04:13:20;;;;;;;8.30;2.80;;;;;;;12.78;95.95;100610.80;105681;1271;66673;-75
2022/07/29 04:16:08;;;;;;;7.80;2.70;;;;;;;12.94;95.70;100607.88;105106;1271;74414;-75
2022/07/29 04:18:56;;;;;;;6.80;2.10;;;;;;;13.14;95.72;100608.66;105107;1271;59770;-75
2022/07/29 04:21:45;;;;;;;6.60;2.10;;;;;;;13.38;95.13;100608.73;105239;1271;60996;-76
2022/07/29 04:24:34;;;;;;;8.60;2.40;;;;;;;13.60;94.09;100608.55;105030;1271;71279;-74
2022/07/29 04:27:22;;;;;;;7.90;2.50;;;;;;;13.76;93.02;100610.95;105155;1271;69972;-75
2022/07/29 04:30:10;;;;;;;8.90;3.40;;;;;;;13.84;92.03;100610.48;105188;1271;73402;-74
2022/07/29 04:33:00;;;;;;;8.90;2.90;;;;;;;13.86;91.34;100611.96;105042;1271;61310;-75
2022/07/29 04:35:48;;;;;;;7.80;2.70;;;;;;;13.98;91.15;100611.65;105131;1271;62011;-75
2022/07/29 04:38:41;;;;;;;7.60;2.70;;;;;;;14.16;90.77;100612.69;105323;1271;74796;-74
2022/07/29 04:41:30;;;;;;;9.00;2.80;;;;;;;14.29;90.90;100615.30;105114;1271;68456;-76
2022/07/29 04:44:20;;;;;;;9.00;2.70;;;;;;;14.40;90.77;100614.19;104875;1273;74247;-76
2022/07/29 04:47:15;;;;;;;7.80;2.60;;;;;;;14.64;90.63;100615.42;105397;1271;59773;-75
2022/07/29 04:50:05;;;;;;;8.40;3.40;;;;;;;14.95;89.66;100616.32;105365;1271;59896;-77
2022/07/29 04:52:53;;;;;;;9.00;3.70;;;;;;;15.13;89.25;100614.23;106969;1271;73285;-76
2022/07/29 04:55:41;;;;;;;9.20;3.00;;;;;;;15.32;89.16;100612.56;105213;1270;68024;-79
2022/07/29 04:58:29;;;;;;;10.90;3.30;;;;;;;15.57;89.20;100615.30;105282;1271;73925;-78
2022/07/29 05:01:17;;;;;;;9.20;3.20;;;;;;;15.85;88.97;100610.27;105167;1271;59685;-79
2022/07/29 05:04:05;;;;;;;9.40;3.10;;;;;;;16.26;87.74;100603.73;105208;1273;62250;-78
2022/07/29 05:06:53;;;;;;;9.20;2.90;;;;;;;16.65;86.49;100604.56;105790;1271;75017;-79
2022/07/29 05:09:41;;;;;;;12.10;2.60;;;;;;;16.87;86.10;100603.41;105277;1271;67079;-77
2022/07/29 05:12:29;;;;;;;12.70;2.60;;;;;;;17.14;84.95;100607.25;105577;1271;72783;-78
2022/07/29 05:15:18;;;;;;;8.20;2.10;;;;;;;17.46;84.59;100608.60;105269;1271;59793;-79
2022/07/29 05:18:06;;;;;;;7.30;2.00;;;;;;;17.79;83.37;100609.55;105167;1274;60997;-78
2022/07/29 05:20:53;;;;;;;7.10;1.80;;;;;;;18.16;82.34;100613.95;105138;1271;72795;-78
2022/07/29 05:23:43;;;;;;;8.20;1.90;;;;;;;18.90;79.09;100614.43;104751;1273;290246;-78
2022/07/29 05:26:31;;;;;;;7.10;1.70;;;;;;;19.54;74.89;100616.25;105019;1272;70437;-78
2022/07/29 05:29:19;;;;;;;6.70;1.50;;;;;;;19.72;74.17;100616.48;105330;1271;59741;-75
2022/07/29 05:32:28;;;;;;;6.70;1.40;;;;;;;19.90;73.38;100612.41;105948;1273;59762;-79
2022/07/29 05:35:16;;;;;;;7.00;1.30;;;;;;;21.13;68.07;100607.56;105993;1271;72012;-79
2022/07/29 05:38:04;;;;;;;4.80;1.10;;;;;;;21.49;65.34;100607.23;106413;1271;66820;-78
2022/07/29 05:40:58;;;;;;;5.60;1.10;;;;;;;20.98;63.76;100609.31;106482;1271;74512;-77
2022/07/29 05:43:46;;;;;;;6.60;1.40;;;;;;;20.70;64.38;100608.50;106178;1271;59654;-79
2022/07/29 05:46:34;;;;;;;6.40;1.40;;;;;;;21.93;63.04;100607.40;106236;1274;62081;-79
2022/07/29 05:49:23;;;;;;;6.10;1.50;;;;;;;23.38;58.66;100600.27;106309;1271;74116;-77
2022/07/29 05:52:14;;;;;;;7.10;1.30;;;;;;;23.95;55.75;100599.46;105932;1273;66678;-75
2022/07/29 05:55:05;;;;;;;5.50;1.30;;;;;;;23.58;55.38;100600.78;105905;1271;72864;-76
2022/07/29 05:57:53;;;;;;;6.80;1.50;;;;;;;23.06;55.58;100597.14;105558;1271;59775;-77
2022/07/29 06:00:41;;;;;;;7.50;1.30;;;;;;;22.86;55.90;100600.79;106117;1271;62097;-78
2022/07/29 06:03:30;;;;;;;5.60;1.30;;;;;;;23.59;53.29;100600.73;106629;1271;72016;-75
2022/07/29 06:06:17;;;;;;;7.30;1.20;;;;;;;24.89;49.94;100589.30;106240;1271;67047;-77
2022/07/29 06:09:05;;;;;;;3.30;0.70;;;;;;;26.05;47.32;100585.09;106809;1271;73407;-78
2022/07/29 06:11:59;;;;;;;5.00;0.80;;;;;;;27.15;42.58;100584.15;106751;1273;59753;-79
2022/07/29 06:14:47;;;;;;;4.80;0.80;;;;;;;27.86;40.72;100588.04;106974;1271;61024;-79
2022/07/29 06:17:41;;;;;;;6.00;0.80;;;;;;;28.76;40.20;100575.41;106585;1271;73025;-79
2022/07/29 06:20:48;;;;;;;5.30;1.10;;;;;;;29.51;35.59;100578.86;106990;1271;66777;-78
2022/07/29 06:23:39;;;;;;;5.20;0.90;;;;;;;30.13;36.46;100575.61;106590;1271;73340;-77
2022/07/29 06:26:27;;;;;;;6.10;0.90;;;;;;;30.89;35.06;100574.05;106728;1271;59721;-76
2022/07/29 06:29:18;;;;;;;5.50;1.10;;;;;;;30.29;35.34;100577.34;106752;1271;59617;-78
2022/07/29 06:32:07;;;;;;;6.20;0.80;;;;;;;29.55;35.30;100580.45;106839;1271;73659;-77
2022/07/29 06:34:55;;;;;;;6.00;1.00;;;;;;;29.40;35.98;100583.25;106510;1271;69671;-79
2022/07/29 06:38:03;;;;;;;5.70;0.90;;;;;;;29.98;34.34;100580.16;106083;1271;71596;-77
2022/07/29 06:41:12;;;;;;;5.30;0.90;;;;;;;29.06;34.79;100577.70;106095;1271;59666;-75
2022/07/29 06:44:00;;;;;;;6.40;1.20;;;;;;;27.83;37.54;100585.30;106662;1271;59669;-78
2022/07/29 06:46:49;;;;;;;5.80;1.00;;;;;;;28.33;37.38;100584.70;106527;1271;73661;-77
2022/07/29 06:49:38;;;;;;;3.90;0.90;;;;;;;29.17;35.43;100579.45;107102;1271;66741;-76
2022/07/29 06:52:26;;;;;;;4.90;1.00;;;;;;;30.03;34.59;100582.74;107473;1271;71828;-78
2022/07/29 06:55:15;;;;;;;5.30;1.00;;;;;;;30.41;33.68;100585.27;107425;1274;59787;-79
2022/07/29 06:58:11;;;;;;;7.80;1.10;;;;;;;31.35;32.24;100579.45;106248;1271;61052;-77
2022/07/29 07:01:03;;;;;;;4.70;0.60;;;;;;;32.16;29.87;100580.92;105815;1272;73254;-78
2022/07/29 07:03:51;;;;;;;5.20;0.80;;;;;;;32.34;29.08;100585.10;105646;1271;66713;-80
2022/07/29 07:06:40;;;;;;;6.00;0.90;;;;;;;30.99;30.97;100584.02;106495;1271;72957;-76
2022/07/29 07:09:28;;;;;;;5.40;0.70;;;;;;;29.61;32.58;100584.44;105731;1271;59772;-80
2022/07/29 07:12:27;;;;;;;6.00;1.00;;;;;;;28.15;34.57;100589.85;106097;1271;59601;-77
2022/07/29 07:15:15;;;;;;;6.90;1.00;;;;;;;28.14;35.21;100588.86;106277;1271;71930;-76
2022/07/29 07:18:05;;;;;;;6.40;0.70;;;;;;;27.52;35.34;100587.05;106342;1271;66758;-78
2022/07/29 07:20:53;;;;;;;5.80;1.00;;;;;;;26.45;37.67;100585.15;106710;1271;74269;-77
2022/07/29 07:23:41;;;;;;;6.00;0.90;;;;;;;26.22;38.43;100584.58;106357;1271;59707;-78
2022/07/29 07:26:29;;;;;;;5.70;1.20;;;;;;;26.00;38.35;100583.29;106261;1271;59659;-77
2022/07/29 07:29:18;;;;;;;6.60;0.90;;;;;;;26.83;37.45;100578.85;105835;1271;74619;-78
2022/07/29 07:32:07;;;;;;;5.00;1.00;;;;;;;26.18;37.95;100579.83;106786;1271;69293;-81
2022/07/29 07:34:56;;;;;;;6.00;1.10;;;;;;;26.57;38.39;100585.47;106269;1271;73050;-78
2022/07/29 07:37:46;;;;;;;6.70;1.00;;;;;;;27.43;37.28;100582.47;106351;1273;59658;-77
2022/07/29 07:40:35;;;;;;;8.20;1.40;;;;;;;28.05;36.02;100577.52;106461;1273;60729;-77
2022/07/29 07:43:24;;;;;;;9.20;2.00;;;;;;;29.04;34.19;100577.14;106574;1271;73160;-77
2022/07/29 07:46:13;;;;;;;8.00;1.40;;;;;;;30.31;32.30;100577.29;105972;1271;66817;-74
2022/07/29 07:49:01;;;;;;;9.00;1.20;;;;;;;31.47;31.02;100576.77;105025;1273;72864;-76
2022/07/29 07:51:50;;;;;;;6.20;1.20;;;;;;;32.25;29.17;100575.46;105067;1271;59890;-77
2022/07/29 07:54:38;;;;;;;7.20;1.50;;;;;;;32.41;28.82;100575.44;105321;1271;60957;-74
2022/07/29 07:57:26;;;;;;;6.40;1.30;;;;;;;32.66;28.08;100577.78;105045;1271;73251;-75
2022/07/29 08:00:16;;;;;;;7.80;1.00;;;;;;;32.94;27.66;100581.30;105097;1271;68607;-74
2022/07/29 08:03:04;;;;;;;5.40;1.00;;;;;;;33.32;27.17;100579.02;105174;1271;72852;-75
2022/07/29 08:06:04;;;;;;;5.70;0.80;;;;;;;33.63;26.04;100575.32;105195;1271;59692;-77
2022/07/29 08:08:52;;;;;;;4.10;0.90;;;;;;;33.78;26.26;100573.99;105233;1271;59669;-76
2022/07/29 08:11:42;;;;;;;4.90;1.00;;;;;;;34.18;26.16;100579.59;105106;1271;74944;-73
2022/07/29 08:14:38;;;;;;;5.60;1.10;;;;;;;34.00;25.91;100581.08;105252;1271;68699;-74
2022/07/29 08:17:26;;;;;;;6.60;1.70;;;;;;;33.24;26.97;100581.47;105136;1271;74398;-76
2022/07/29 08:20:14;;;;;;;6.60;1.70;;;;;;;32.89;27.26;100591.11;105073;1271;59854;-73
2022/07/29 08:23:04;;;;;;;6.10;0.80;;;;;;;32.95;26.86;100592.95;105112;1271;59606;-73
2022/07/29 08:25:52;;;;;;;4.60;0.70;;;;;;;32.41;27.63;100595.42;104994;1274;72074;-75
2022/07/29 08:28:45;;;;;;;5.70;1.60;;;;;;;32.02;28.59;100595.32;105300;1271;69559;-74
2022/07/29 08:31:33;;;;;;;3.90;0.60;;;;;;;31.86;28.82;100596.16;105119;1271;72961;-74
2022/07/29 08:34:21;;;;;;;6.90;0.90;;;;;;;31.72;28.57;100594.27;105017;1271;59758;-75
2022/07/29 08:37:15;;;;;;;6.50;0.70;;;;;;;31.75;28.05;100597.56;105060;1271;62017;-79
2022/07/29 08:40:03;;;;;;;5.10;0.80;;;;;;;31.84;27.71;100596.34;105457;1271;73276;-77
2022/07/29 08:42:52;;;;;;;4.70;0.80;;;;;;;31.79;26.98;100597.36;105007;1271;69876;-77
2022/07/29 08:45:50;;;;;;;4.10;0.80;;;;;;;31.97;27.27;100598.49;105123;1271;71613;-77
2022/07/29 08:48:44;;;;;;;4.60;0.70;;;;;;;32.34;27.43;100598.58;105311;1271;60008;-76
2022/07/29 08:51:35;;;;;;;4.20;0.70;;;;;;;32.71;26.37;100609.64;105379;1273;60251;-76
2022/07/29 08:54:36;;;;;;;4.80;0.60;;;;;;;32.99;26.43;100603.42;106000;1271;73158;-77
2022/07/29 08:57:25;;;;;;;4.20;0.70;;;;;;;33.46;26.29;100599.05;105519;1271;67529;-76
2022/07/29 09:00:14;;;;;;;4.40;0.60;;;;;;;33.85;25.46;100598.19;105276;1271;71717;-77
2022/07/29 09:03:04;;;;;;;5.20;0.70;;;;;;;33.99;24.95;100602.46;105836;1271;59538;-77
2022/07/29 09:05:53;;;;;;;5.10;1.60;;;;;;;34.08;24.93;100599.77;105176;1271;59637;-79
2022/07/29 09:08:42;;;;;;;5.20;1.10;;;;;;;34.20;24.64;100600.25;105548;1271;71956;-80
2022/07/29 09:11:33;;;;;;;5.30;0.90;;;;;;;34.25;24.25;100604.92;105314;1271;67954;-76
2022/07/29 09:14:21;;;;;;;5.80;0.70;;;;;;;34.44;24.11;100606.48;105190;1271;71952;-75
2022/07/29 09:17:09;;;;;;;4.80;0.70;;;;;;;34.74;23.75;100600.52;105648;1271;59736;-77
2022/07/29 09:20:09;;;;;;;3.40;0.50;;;;;;;35.00;23.50;100599.90;105682;1272;59660;-78
2022/07/29 09:23:07;;;;;;;4.10;0.60;;;;;;;35.20;22.79;100607.83;105084;1273;73433;-75
2022/07/29 09:26:05;;;;;;;3.80;0.60;;;;;;;35.16;22.07;100601.06;105228;1273;69575;-76
2022/07/29 09:28:53;;;;;;;4.30;0.70;;;;;;;35.17;21.74;100601.02;105579;1271;71629;-79
2022/07/29 09:31:44;;;;;;;2.70;0.50;;;;;;;35.31;21.27;100594.17;105814;1271;59564;-80
2022/07/29 09:34:33;;;;;;;3.50;0.40;;;;;;;35.36;21.49;100592.59;106184;1271;60467;-77
2022/07/29 09:37:30;;;;;;;4.20;0.70;;;;;;;35.52;21.63;100590.41;106077;1271;72995;-75
2022/07/29 09:40:28;;;;;;;4.10;0.60;;;;;;;35.65;21.64;100593.24;105446;1271;68263;-78
2022/07/29 09:43:16;;;;;;;3.80;0.70;;;;;;;35.70;21.42;100592.42;105171;1273;72619;-78
2022/07/29 09:46:14;;;;;;;4.00;0.60;;;;;;;35.85;21.82;100589.65;105109;1271;59694;-78
2022/07/29 09:49:12;;;;;;;3.20;0.60;;;;;;;35.88;21.80;100586.28;105008;1271;59705;-78
2022/07/29 09:52:08;;;;;;;3.30;0.50;;;;;;;35.72;21.24;100591.61;105180;1271;73045;-77
2022/07/29 09:55:09;;;;;;;3.70;0.50;;;;;;;35.47;21.27;100585.42;105109;1271;67053;-79
2022/07/29 09:58:22;;;;;;;4.20;0.70;;;;;;;35.25;21.56;100583.73;105275;1271;74603;-78
2022/07/29 10:01:12;;;;;;;3.20;0.50;;;;;;;34.85;21.83;100576.11;105457;1273;59670;-78
2022/07/29 10:04:00;;;;;;;4.40;0.80;;;;;;;34.60;22.40;100578.66;105060;1273;60270;-76
2022/07/29 10:07:04;;;;;;;4.70;0.70;;;;;;;34.50;21.80;100578.16;105910;1271;71912;-79
2022/07/29 10:09:57;;;;;;;4.80;0.60;;;;;;;34.64;21.29;100576.98;105386;1271;68169;-78
2022/07/29 10:12:59;;;;;;;4.20;0.60;;;;;;;34.88;20.22;100578.28;105737;1271;72824;-78
2022/07/29 10:15:55;;;;;;;3.20;0.50;;;;;;;35.23;19.05;100570.11;105224;1272;59886;-74
2022/07/29 10:18:46;;;;;;;3.20;0.40;;;;;;;35.23;17.71;100571.44;105212;1271;59654;-75
2022/07/29 10:21:34;;;;;;;3.60;0.40;;;;;;;35.31;17.05;100566.02;104926;1273;73378;-76
2022/07/29 10:24:28;;;;;;;5.00;0.60;;;;;;;35.22;16.85;100568.73;105248;1271;69144;-76
2022/07/29 10:27:17;;;;;;;3.00;0.50;;;;;;;35.09;16.25;100569.58;105399;1271;70815;-76
2022/07/29 10:30:06;;;;;;;1.80;0.40;;;;;;;34.96;16.56;100562.45;105708;1270;59742;-76
2022/07/29 10:33:37;;;;;;;4.60;1.00;;;;;;;34.54;16.64;100564.65;105355;1271;60238;-75
2022/07/29 10:36:52;;;;;;;2.70;0.50;;;;;;;34.22;17.26;100561.66;105617;1271;72086;-75
2022/07/29 10:43:32;;;;;;;2.70;0.50;;;;;;;33.78;17.63;100558.15;105066;1271;74484;-75
2022/07/29 10:46:21;;;;;;;2.40;0.50;;;;;;;33.82;17.75;100556.98;105297;1271;59818;-72
2022/07/29 10:49:21;;;;;;;4.00;0.60;;;;;;;33.83;18.08;100561.08;105361;1271;60248;-76
2022/07/29 10:52:11;;;;;;;5.20;1.70;;;;;;;34.26;18.49;100553.57;104993;1271;72296;-76
2022/07/29 10:55:02;;;;;;;9.10;6.50;;;;;;;34.80;17.76;100550.26;105304;1271;66787;-76
2022/07/29 10:58:15;;;;;;;7.00;2.70;;;;;;;35.25;16.62;100553.38;104968;1271;73402;-76
2022/07/29 11:01:31;;;;;;;3.30;0.70;;;;;;;35.52;16.06;100546.85;105152;1273;59785;-79
2022/07/29 11:04:59;;;;;;;4.00;0.70;;;;;;;35.69;16.02;100547.98;105419;1271;59652;-76
2022/07/29 11:08:12;;;;;;;3.90;0.60;;;;;;;35.91;15.36;100552.61;105383;1271;73384;-75
2022/07/29 11:11:19;;;;;;;3.20;0.60;;;;;;;35.82;15.17;100555.91;105053;1271;67026;-74
2022/07/29 11:14:09;;;;;;;3.10;0.60;;;;;;;35.79;16.18;100557.79;105042;1271;72811;-74
2022/07/29 11:17:05;;;;;;;2.60;0.50;;;;;;;35.72;16.16;100557.45;105328;1271;59783;-79
2022/07/29 11:20:34;;;;;;;4.60;0.60;;;;;;;35.53;16.18;100553.38;105428;1271;59390;-79
2022/07/29 11:23:31;;;;;;;3.00;0.60;;;;;;;34.92;16.37;100555.80;104844;1273;72112;-78
2022/07/29 11:26:22;;;;;;;4.30;0.60;;;;;;;34.23;16.93;100550.80;105121;1271;68042;-78
2022/07/29 11:29:21;;;;;;;2.80;0.50;;;;;;;33.34;17.58;100548.14;105215;1272;72155;-78
2022/07/29 11:32:16;;;;;;;3.30;0.60;;;;;;;32.34;18.21;100549.67;105018;1271;60327;-75
2022/07/29 11:35:20;;;;;;;3.00;0.50;;;;;;;31.93;18.61;100547.23;105090;1271;60480;-76
2022/07/29 11:38:28;;;;;;;4.40;0.60;;;;;;;31.36;18.50;100543.26;105304;1271;73307;-77
2022/07/29 11:41:29;;;;;;;2.40;0.60;;;;;;;30.89;19.95;100541.74;104928;1271;68683;-76
2022/07/29 11:44:58;;;;;;;3.90;0.80;;;;;;;30.62;20.17;100543.16;105263;1271;71668;-79
2022/07/29 11:47:58;;;;;;;4.10;0.90;;;;;;;29.96;20.26;100540.88;104934;1271;59826;-77
2022/07/29 11:51:14;;;;;;;7.80;3.30;;;;;;;29.25;21.39;100538.51;105148;1271;61569;-76
2022/07/29 11:54:05;;;;;;;5.40;1.40;;;;;;;28.49;23.63;100537.86;104908;1273;72379;-77
2022/07/29 11:57:02;;;;;;;4.60;1.30;;;;;;;27.60;24.81;100544.71;105313;1271;68800;-74
2022/07/29 11:59:51;;;;;;;4.20;0.80;;;;;;;26.79;26.68;100534.15;105037;1274;74385;-79
2022/07/29 12:02:42;;;;;;;3.80;0.70;;;;;;;26.36;27.09;100551.45;105043;1271;60326;-75
2022/07/29 12:05:47;;;;;;;3.40;0.60;;;;;;;25.69;28.05;100553.17;104937;1271;60496;-73
2022/07/29 12:08:55;;;;;;;3.20;0.70;;;;;;;25.20;28.93;100553.61;105428;1271;72240;-75
2022/07/29 12:11:47;;;;;;;4.70;1.00;;;;;;;24.76;29.66;100554.52;105050;1271;67159;-77
2022/07/29 12:14:35;;;;;;;3.90;0.80;;;;;;;24.41;30.61;100556.27;104977;1272;72905;-74
2022/07/29 12:17:32;;;;;;;3.90;0.70;;;;;;;24.08;30.31;100560.65;105324;1271;59701;-73
2022/07/29 12:20:29;;;;;;;3.60;0.80;;;;;;;23.94;31.41;100557.59;105176;1271;60539;-74
2022/07/29 12:23:17;;;;;;;5.00;0.70;;;;;;;23.84;31.60;100558.35;104882;1273;73245;-74
2022/07/29 12:26:06;;;;;;;5.00;0.80;;;;;;;23.79;32.27;100556.39;105035;1271;66956;-75
2022/07/29 12:29:17;;;;;;;4.70;0.70;;;;;;;23.78;32.59;100563.53;105017;1271;72559;-73
2022/07/29 12:32:07;;;;;;;4.30;0.70;;;;;;;23.73;33.36;100567.33;105246;1271;59797;-73
2022/07/29 12:35:14;;;;;;;4.90;1.10;;;;;;;23.68;32.84;100567.31;105191;1271;59908;-73
2022/07/29 12:38:03;;;;;;;3.30;0.60;;;;;;;23.56;32.53;100563.35;105161;1271;73288;-73
2022/07/29 12:40:53;;;;;;;3.10;0.70;;;;;;;23.53;33.36;100566.91;105040;1271;69549;-74
2022/07/29 12:43:55;;;;;;;3.30;0.80;;;;;;;23.39;33.74;100568.97;105005;1273;72873;-76
2022/07/29 12:46:46;;;;;;;3.60;0.90;;;;;;;23.32;33.54;100570.07;105237;1271;59569;-74
2022/07/29 12:49:34;;;;;;;5.30;1.30;;;;;;;23.37;33.62;100568.31;104834;1273;60541;-74
2022/07/29 12:52:32;;;;;;;3.80;0.80;;;;;;;23.44;32.84;100572.33;104963;1271;73332;-72
2022/07/29 12:55:48;;;;;;;5.40;0.80;;;;;;;23.40;32.62;100569.19;105033;1271;66442;-74
2022/07/29 12:58:41;;;;;;;3.90;0.90;;;;;;;23.41;33.73;100568.95;105282;1271;72848;-72
2022/07/29 13:01:36;;;;;;;3.50;0.80;;;;;;;23.28;33.58;100564.88;105034;1271;59722;-75
2022/07/29 13:04:29;;;;;;;4.80;0.90;;;;;;;23.11;34.30;100556.27;105077;1271;60438;-74
2022/07/29 13:07:25;;;;;;;2.90;0.60;;;;;;;23.09;34.44;100559.46;104955;1271;71989;-74
2022/07/29 13:10:36;;;;;;;3.90;0.90;;;;;;;22.96;34.62;100554.02;105150;1271;68268;-74
2022/07/29 13:13:24;;;;;;;2.80;0.60;;;;;;;22.89;34.80;100554.45;105073;1273;72897;-74
2022/07/29 13:16:12;;;;;;;3.50;0.90;;;;;;;22.80;36.07;100546.88;104888;1273;59776;-74
2022/07/29 13:19:07;;;;;;;3.60;0.70;;;;;;;22.83;36.20;100548.15;105161;1272;59964;-75
2022/07/29 13:21:58;;;;;;;4.40;0.70;;;;;;;22.81;34.44;100542.91;105327;1271;74598;-72
2022/07/29 13:24:52;;;;;;;3.10;0.70;;;;;;;22.79;35.44;100544.30;105268;1271;66831;-73
2022/07/29 13:27:40;;;;;;;3.40;0.70;;;;;;;22.82;35.83;100545.71;105297;1271;72922;-74